Time;durP1;ratioP1;P1;durP2;ratioP2;P2;SDS_P1;SDS_P2;PMS_P1;PMS_P2;Temp;Humidity;BMP_temperature;BMP_pressure;BME280_temperature;BME280_humidity;BME280_pressure;Samples;Min_cycle;Max_cycle;Signal;HPM_P1;HPM_P2
2022/10/16 00:01:26;;;;;;;1.63;0.70;;;;;;;16.31;61.88;100804.25;4903608;28;96918;-48
2022/10/16 00:03:52;;;;;;;2.60;0.77;;;;;;;16.28;61.83;100810.84;4901052;28;97246;-50
2022/10/16 00:06:20;;;;;;;2.00;1.00;;;;;;;16.26;61.96;100813.41;4904482;28;97808;-48
2022/10/16 00:08:46;;;;;;;0.90;0.50;;;;;;;16.25;61.96;100813.94;4906296;28;98068;-50
2022/10/16 00:11:15;;;;;;;2.80;0.83;;;;;;;16.23;61.94;100817.22;4901734;28;98577;-48
2022/10/16 00:13:42;;;;;;;4.73;0.70;;;;;;;16.19;61.86;100816.78;4904148;28;97114;-48
2022/10/16 00:16:09;;;;;;;1.70;0.70;;;;;;;16.15;61.89;100810.03;4906657;28;97329;-49
2022/10/16 00:18:34;;;;;;;2.10;0.70;;;;;;;16.13;61.96;100807.03;4903617;28;96699;-49
2022/10/16 00:21:05;;;;;;;1.13;0.70;;;;;;;16.11;62.17;100813.13;4906746;28;97176;-49
2022/10/16 00:23:31;;;;;;;4.93;0.80;;;;;;;16.10;62.08;100814.38;4904110;28;97072;-49
2022/10/16 00:25:59;;;;;;;3.03;0.70;;;;;;;16.11;62.17;100813.13;4904515;28;98554;-49
2022/10/16 00:28:25;;;;;;;1.63;0.90;;;;;;;16.12;62.26;100813.88;4902147;28;97831;-49
2022/10/16 00:30:50;;;;;;;0.80;0.80;;;;;;;16.13;62.10;100816.13;4902279;28;98807;-48
2022/10/16 00:33:16;;;;;;;3.80;1.00;;;;;;;16.14;61.97;100819.66;4904765;28;97282;-51
2022/10/16 00:35:41;;;;;;;2.13;0.80;;;;;;;16.15;62.12;100827.44;4907146;28;97050;-47
2022/10/16 00:38:06;;;;;;;3.03;0.60;;;;;;;16.16;62.15;100826.16;4901204;28;98043;-48
2022/10/16 00:40:32;;;;;;;1.60;0.60;;;;;;;16.17;62.02;100838.00;4905734;28;97131;-49
2022/10/16 00:42:57;;;;;;;0.93;0.93;;;;;;;16.18;62.06;100836.75;4907653;28;100637;-49
2022/10/16 00:45:23;;;;;;;5.47;0.60;;;;;;;16.16;62.08;100837.25;4909962;28;97294;-49
2022/10/16 00:47:51;;;;;;;2.33;0.60;;;;;;;16.16;62.18;100842.06;4904668;28;97466;-49
2022/10/16 00:50:31;;;;;;;1.83;0.53;;;;;;;16.14;62.07;100842.59;4905535;28;97369;-49
2022/10/16 00:52:58;;;;;;;1.97;0.63;;;;;;;16.10;62.00;100839.38;4907745;28;96875;-50
2022/10/16 00:55:25;;;;;;;0.60;0.60;;;;;;;16.06;61.95;100835.38;4910333;28;96607;-48
2022/10/16 00:57:51;;;;;;;7.90;0.93;;;;;;;16.04;62.11;100838.69;4910038;28;99161;-49
2022/10/16 01:00:20;;;;;;;1.67;0.60;;;;;;;16.02;62.07;100843.28;4908121;28;97750;-50
2022/10/16 01:02:52;;;;;;;1.93;0.60;;;;;;;16.00;62.23;100851.38;4907771;28;97204;-48
2022/10/16 01:05:17;;;;;;;2.30;0.97;;;;;;;15.96;62.20;100846.13;4905792;28;97160;-50
2022/10/16 01:08:03;;;;;;;0.60;0.60;;;;;;;15.92;62.32;100840.13;4906316;28;97375;-49
2022/10/16 01:10:39;;;;;;;1.67;0.63;;;;;;;15.86;62.24;100847.75;4904439;28;101143;-49
2022/10/16 01:13:11;;;;;;;1.00;0.70;;;;;;;15.84;62.28;100838.47;4905700;28;97671;-49
2022/10/16 01:15:51;;;;;;;3.43;0.80;;;;;;;15.81;62.50;100847.84;4906868;28;97539;-48
2022/10/16 01:18:19;;;;;;;2.23;0.70;;;;;;;15.78;62.40;100855.19;4906350;28;97515;-49
2022/10/16 01:20:52;;;;;;;1.13;0.73;;;;;;;15.77;62.49;100854.44;4907658;28;96778;-49
2022/10/16 01:23:29;;;;;;;6.20;1.20;;;;;;;15.69;62.47;100859.06;4907177;28;96824;-49
2022/10/16 01:26:27;;;;;;;1.73;0.60;;;;;;;15.68;62.39;100862.38;4906240;28;97450;-49
2022/10/16 01:29:13;;;;;;;1.37;0.70;;;;;;;15.62;62.58;100851.34;4905745;28;101860;-49
2022/10/16 01:31:43;;;;;;;1.20;0.60;;;;;;;15.58;62.39;100853.66;4908415;28;101564;-50
2022/10/16 01:34:14;;;;;;;1.90;0.80;;;;;;;15.55;62.52;100865.06;4905201;28;97127;-52
2022/10/16 01:36:47;;;;;;;0.70;0.60;;;;;;;15.53;62.44;100870.38;4908480;28;97005;-49
2022/10/16 01:39:13;;;;;;;4.77;0.50;;;;;;;15.52;62.48;100868.84;4908018;28;100655;-50
2022/10/16 01:41:48;;;;;;;3.07;0.60;;;;;;;15.52;62.58;100868.84;4909832;28;100368;-49
2022/10/16 01:44:24;;;;;;;2.70;0.70;;;;;;;15.50;62.59;100871.41;4906557;28;97410;-49
2022/10/16 01:46:52;;;;;;;4.40;0.90;;;;;;;15.48;62.45;100854.53;4905328;28;97899;-50
2022/10/16 01:49:20;;;;;;;0.90;0.50;;;;;;;15.43;62.34;100856.09;4907816;28;96735;-49
2022/10/16 01:51:50;;;;;;;2.07;0.90;;;;;;;15.39;62.51;100861.16;4907683;28;97399;-49
2022/10/16 01:54:18;;;;;;;2.60;0.60;;;;;;;15.37;62.49;100869.25;4904164;28;96833;-49
2022/10/16 01:56:45;;;;;;;6.53;0.70;;;;;;;15.35;62.54;100869.03;4908753;28;96915;-50
2022/10/16 01:59:15;;;;;;;3.33;0.80;;;;;;;15.33;62.60;100873.59;4907948;28;97438;-50
2022/10/16 02:01:46;;;;;;;1.73;0.70;;;;;;;15.28;62.45;100879.91;4910689;28;99524;-50
2022/10/16 02:04:34;;;;;;;1.30;0.73;;;;;;;15.22;62.80;100871.69;4909999;28;96597;-49
2022/10/16 02:07:00;;;;;;;2.40;0.50;;;;;;;15.21;62.64;100869.41;4908302;28;96986;-49
2022/10/16 02:09:26;;;;;;;4.60;0.90;;;;;;;15.19;62.63;100866.41;4905431;28;97548;-49
2022/10/16 02:11:56;;;;;;;4.10;0.90;;;;;;;15.16;62.58;100878.53;4907259;28;97785;-49
2022/10/16 02:14:24;;;;;;;0.80;0.60;;;;;;;15.12;62.67;100856.63;4906661;28;97675;-49
2022/10/16 02:16:50;;;;;;;1.70;0.53;;;;;;;15.09;62.61;100856.94;4903818;28;97154;-49
2022/10/16 02:19:19;;;;;;;2.03;0.80;;;;;;;15.05;62.67;100862.75;4904549;28;97730;-49
2022/10/16 02:21:56;;;;;;;2.07;0.60;;;;;;;15.01;62.84;100871.34;4905892;28;100072;-50
2022/10/16 02:24:33;;;;;;;3.07;0.70;;;;;;;14.97;62.98;100872.91;4907077;28;96856;-52
2022/10/16 02:27:25;;;;;;;1.30;0.73;;;;;;;14.95;62.84;100878.22;4907585;28;97245;-49
2022/10/16 02:30:01;;;;;;;0.60;0.60;;;;;;;14.94;62.72;100879.47;4901256;28;100493;-49
2022/10/16 02:32:32;;;;;;;2.00;0.70;;;;;;;14.92;62.78;100885.53;4900320;28;101444;-49
2022/10/16 02:35:00;;;;;;;2.10;0.60;;;;;;;14.88;62.75;100896.16;4905520;28;97423;-49
2022/10/16 02:37:26;;;;;;;4.73;0.70;;;;;;;14.87;62.84;100889.09;4906288;28;97116;-49
2022/10/16 02:39:53;;;;;;;0.57;0.57;;;;;;;14.84;62.87;100895.69;4908262;28;97773;-48
2022/10/16 02:42:18;;;;;;;1.17;0.90;;;;;;;14.79;62.77;100904.78;4908397;28;97151;-49
2022/10/16 02:44:44;;;;;;;0.87;0.80;;;;;;;14.78;62.83;100902.53;4907574;28;101207;-49
2022/10/16 02:47:09;;;;;;;2.07;0.80;;;;;;;14.74;62.94;100905.56;4907526;28;97133;-49
2022/10/16 02:49:35;;;;;;;1.83;0.57;;;;;;;14.72;62.88;100888.72;4905737;28;97598;-49
2022/10/16 02:52:00;;;;;;;2.70;0.70;;;;;;;14.69;62.83;100889.75;4906328;28;96993;-49
2022/10/16 02:54:25;;;;;;;4.33;0.80;;;;;;;14.64;62.85;100890.53;4909181;28;97023;-49
2022/10/16 02:56:51;;;;;;;2.50;0.80;;;;;;;14.64;62.95;100909.94;4906420;28;96960;-49
2022/10/16 02:59:17;;;;;;;8.07;0.60;;;;;;;14.62;62.92;100898.63;4906016;28;98842;-49
2022/10/16 03:01:42;;;;;;;3.50;0.90;;;;;;;14.60;63.05;100892.84;4903715;28;97763;-49
2022/10/16 03:04:07;;;;;;;2.83;0.60;;;;;;;14.58;62.88;100886.31;4904508;28;97195;-49
2022/10/16 03:06:32;;;;;;;1.03;0.83;;;;;;;14.55;63.01;100893.63;4900510;28;97236;-49
2022/10/16 03:08:58;;;;;;;1.83;1.03;;;;;;;14.53;63.07;100893.38;4901479;28;100925;-48
2022/10/16 03:11:23;;;;;;;4.20;0.73;;;;;;;14.51;63.12;100878.53;4905349;28;115295;-49
2022/10/16 03:13:48;;;;;;;0.87;0.70;;;;;;;14.50;63.11;100893.69;4903403;28;101140;-49
2022/10/16 03:16:14;;;;;;;6.83;1.27;;;;;;;14.50;63.13;100893.69;4907763;28;97267;-50
2022/10/16 03:18:39;;;;;;;0.90;0.90;;;;;;;14.49;63.13;100894.94;4904584;28;97616;-49
2022/10/16 03:21:05;;;;;;;2.40;0.80;;;;;;;14.49;63.04;100897.69;4907195;28;102868;-49
2022/10/16 03:23:30;;;;;;;1.13;0.90;;;;;;;14.49;63.15;100890.16;4903271;28;97268;-49
2022/10/16 03:25:55;;;;;;;1.43;0.90;;;;;;;14.47;63.14;100891.91;4905820;28;96981;-49
2022/10/16 03:28:20;;;;;;;2.60;0.50;;;;;;;14.45;63.12;100886.91;4903452;28;97280;-49
2022/10/16 03:30:46;;;;;;;0.90;0.60;;;;;;;14.44;63.09;100890.19;4903885;28;97574;-49
2022/10/16 03:33:11;;;;;;;3.90;0.60;;;;;;;14.44;63.29;100887.44;4902797;28;97709;-49
2022/10/16 03:35:37;;;;;;;0.90;0.60;;;;;;;14.45;63.33;100886.16;4906333;28;97148;-49
2022/10/16 03:38:03;;;;;;;3.30;0.73;;;;;;;14.43;63.25;100889.44;4904132;28;97463;-49
2022/10/16 03:40:28;;;;;;;3.13;0.90;;;;;;;14.43;63.30;100894.97;4906935;28;97455;-50
2022/10/16 03:42:57;;;;;;;0.57;0.57;;;;;;;14.40;63.14;100884.91;4907942;28;97177;-49
2022/10/16 03:45:22;;;;;;;1.93;0.80;;;;;;;14.36;63.18;100884.44;4906449;28;97220;-50
2022/10/16 03:47:47;;;;;;;3.83;0.80;;;;;;;14.33;63.20;100879.19;4906949;28;97203;-50
2022/10/16 03:50:12;;;;;;;1.33;0.70;;;;;;;14.31;63.19;100882.44;4905546;28;97088;-50
2022/10/16 03:52:38;;;;;;;2.20;0.90;;;;;;;14.29;63.05;100890.53;4904725;28;101778;-50
2022/10/16 03:55:03;;;;;;;1.20;1.10;;;;;;;14.26;63.20;100886.72;4903874;28;98989;-49
2022/10/16 03:57:29;;;;;;;5.03;0.70;;;;;;;14.23;63.20;100885.00;4907517;28;98851;-49
2022/10/16 03:59:54;;;;;;;2.70;0.63;;;;;;;14.21;63.32;100884.75;4904866;28;98501;-49
2022/10/16 04:02:19;;;;;;;1.57;1.03;;;;;;;14.22;63.42;100877.19;4900247;28;102528;-49
2022/10/16 04:04:45;;;;;;;2.77;0.90;;;;;;;14.23;63.34;100890.53;4904347;28;97379;-49
2022/10/16 04:07:10;;;;;;;2.47;1.10;;;;;;;14.24;63.46;100894.06;4906757;28;97713;-49
2022/10/16 04:09:35;;;;;;;2.83;0.97;;;;;;;14.25;63.43;100901.84;4903385;28;114315;-49
2022/10/16 04:12:01;;;;;;;2.30;0.80;;;;;;;14.26;62.99;100903.31;4902697;28;97075;-49
2022/10/16 04:14:26;;;;;;;3.20;1.40;;;;;;;14.24;63.25;100900.31;4906791;28;96919;-49
2022/10/16 04:16:51;;;;;;;3.43;0.80;;;;;;;14.24;63.41;100910.66;4901978;28;115684;-49
2022/10/16 04:19:17;;;;;;;0.70;0.70;;;;;;;14.25;63.43;100909.38;4908448;28;97812;-49
2022/10/16 04:21:42;;;;;;;1.67;0.67;;;;;;;14.26;63.46;100921.97;4906288;28;97972;-49
2022/10/16 04:24:07;;;;;;;2.30;0.80;;;;;;;14.25;63.37;100929.50;4907987;28;96910;-49
2022/10/16 04:26:33;;;;;;;1.90;0.50;;;;;;;14.26;63.46;100924.75;4907431;28;112656;-49
2022/10/16 04:28:58;;;;;;;5.10;0.83;;;;;;;14.26;63.42;100913.66;4900386;28;97048;-49
2022/10/16 04:31:23;;;;;;;0.67;0.67;;;;;;;14.25;63.29;100917.69;4909121;28;97506;-49
2022/10/16 04:33:49;;;;;;;2.60;0.90;;;;;;;14.24;63.21;100916.19;4906821;28;103677;-50
2022/10/16 04:36:14;;;;;;;0.93;0.80;;;;;;;14.17;63.38;100911.19;4905319;28;113269;-50
2022/10/16 04:38:39;;;;;;;1.27;0.70;;;;;;;14.13;63.41;100916.97;4911238;28;113756;-49
2022/10/16 04:41:06;;;;;;;2.73;0.90;;;;;;;14.08;63.35;100915.00;4902322;28;97526;-49
2022/10/16 04:43:31;;;;;;;1.03;0.60;;;;;;;14.03;63.36;100923.31;4905377;28;97259;-49
2022/10/16 04:45:57;;;;;;;1.63;1.07;;;;;;;13.99;63.16;100922.84;4907640;28;97308;-49
2022/10/16 04:48:22;;;;;;;2.30;1.10;;;;;;;13.96;63.35;100923.84;4904507;28;98490;-49
2022/10/16 04:50:48;;;;;;;1.33;1.00;;;;;;;13.93;63.42;100939.47;4906679;28;98502;-49
2022/10/16 04:53:13;;;;;;;1.73;0.80;;;;;;;13.92;63.42;100923.38;4907745;28;97393;-49
2022/10/16 04:55:41;;;;;;;1.00;0.70;;;;;;;13.91;63.45;100930.16;4905957;28;97453;-49
2022/10/16 04:58:06;;;;;;;7.80;1.10;;;;;;;13.86;63.34;100926.16;4907327;28;98393;-51
2022/10/16 05:00:31;;;;;;;1.00;1.00;;;;;;;13.83;63.45;100934.69;4906780;28;97087;-49
2022/10/16 05:02:59;;;;;;;2.27;0.90;;;;;;;13.82;63.40;100930.44;4909987;28;100872;-49
2022/10/16 05:05:24;;;;;;;2.00;1.10;;;;;;;13.81;63.46;100934.47;4901213;28;97473;-49
2022/10/16 05:07:51;;;;;;;2.83;0.87;;;;;;;13.79;63.62;100959.09;4906467;28;97206;-49
2022/10/16 05:10:16;;;;;;;1.13;1.00;;;;;;;13.77;63.56;100948.56;4906017;28;97079;-49
2022/10/16 05:12:42;;;;;;;1.33;1.23;;;;;;;13.77;63.60;100958.84;4906402;28;96980;-49
2022/10/16 05:15:08;;;;;;;4.00;0.73;;;;;;;13.77;63.75;100962.38;4907172;28;99437;-49
2022/10/16 05:17:33;;;;;;;0.90;0.80;;;;;;;13.79;63.61;100964.63;4902658;28;97371;-49
2022/10/16 05:19:58;;;;;;;8.27;1.10;;;;;;;13.78;63.82;100954.84;4909469;28;97189;-49
2022/10/16 05:22:24;;;;;;;9.13;0.87;;;;;;;13.77;63.69;100961.63;4907643;28;97433;-49
2022/10/16 05:24:49;;;;;;;2.57;0.83;;;;;;;13.80;63.75;100960.63;4906497;28;98340;-49
2022/10/16 05:27:18;;;;;;;1.93;0.50;;;;;;;13.79;63.61;100959.09;4904625;28;97614;-49
2022/10/16 05:29:46;;;;;;;5.50;0.77;;;;;;;13.79;63.70;100956.34;4906401;28;97284;-50
2022/10/16 05:32:11;;;;;;;0.70;0.70;;;;;;;13.77;63.50;100959.63;4907843;28;97300;-49
2022/10/16 05:34:36;;;;;;;2.83;0.90;;;;;;;13.76;63.85;100960.88;4906457;28;96904;-49
2022/10/16 05:37:02;;;;;;;4.27;1.40;;;;;;;13.76;63.78;100971.94;4905819;28;98330;-49
2022/10/16 05:39:27;;;;;;;2.30;0.90;;;;;;;13.75;63.83;100959.38;4902856;28;97612;-49
2022/10/16 05:41:53;;;;;;;2.60;1.00;;;;;;;13.76;63.83;100963.63;4903416;28;96758;-49
2022/10/16 05:44:18;;;;;;;0.93;0.93;;;;;;;13.77;63.81;100961.63;4905181;28;97185;-49
2022/10/16 05:46:45;;;;;;;0.80;0.80;;;;;;;13.78;64.00;100958.34;4904981;28;114723;-49
2022/10/16 05:49:10;;;;;;;2.30;1.20;;;;;;;13.80;63.80;100952.31;4908009;28;97274;-49
2022/10/16 05:51:36;;;;;;;4.80;1.00;;;;;;;13.82;63.91;100958.09;4904102;28;97406;-50
2022/10/16 05:54:01;;;;;;;2.20;0.90;;;;;;;13.83;63.91;100957.59;4906367;28;117120;-49
2022/10/16 05:56:26;;;;;;;2.10;1.10;;;;;;;13.86;63.85;100964.88;4906223;28;97142;-50
2022/10/16 05:58:52;;;;;;;1.63;1.03;;;;;;;13.87;64.06;100971.16;4906627;28;97388;-49
2022/10/16 06:01:20;;;;;;;1.43;0.80;;;;;;;13.89;63.92;100974.91;4905919;28;97248;-49
2022/10/16 06:03:45;;;;;;;1.17;0.80;;;;;;;13.90;63.91;100972.91;4905714;28;97338;-49
2022/10/16 06:06:16;;;;;;;3.80;0.93;;;;;;;13.93;64.15;100982.97;4902926;28;97367;-49
2022/10/16 06:08:43;;;;;;;1.83;1.10;;;;;;;13.92;64.02;100978.69;4907422;28;98032;-49
2022/10/16 06:11:11;;;;;;;3.40;1.13;;;;;;;13.92;63.79;100982.19;4908638;28;96848;-50
2022/10/16 06:13:37;;;;;;;1.30;0.70;;;;;;;13.91;64.11;100993.78;4905816;28;103476;-49
2022/10/16 06:16:03;;;;;;;3.13;0.63;;;;;;;13.95;63.99;100983.22;4904853;28;96780;-49
2022/10/16 06:18:29;;;;;;;1.83;0.80;;;;;;;13.98;64.11;100987.72;4903570;28;97177;-49
2022/10/16 06:20:55;;;;;;;7.10;1.63;;;;;;;14.03;64.10;100986.94;4907230;28;97378;-49
2022/10/16 06:23:21;;;;;;;0.60;0.60;;;;;;;14.03;64.12;100990.47;4906034;28;98134;-50
2022/10/16 06:25:46;;;;;;;4.63;0.80;;;;;;;14.04;64.08;100997.50;4907303;28;97215;-49
2022/10/16 06:28:13;;;;;;;1.93;0.87;;;;;;;14.07;64.18;100995.72;4906476;28;102505;-50
2022/10/16 06:30:39;;;;;;;2.50;1.30;;;;;;;14.09;64.25;100999.50;4905263;28;96905;-49
2022/10/16 06:33:04;;;;;;;2.00;1.00;;;;;;;14.12;64.25;101000.50;4906315;28;97139;-49
2022/10/16 06:35:31;;;;;;;8.70;1.17;;;;;;;14.15;64.13;101007.81;4905714;28;111142;-49
2022/10/16 06:37:57;;;;;;;3.00;0.90;;;;;;;14.22;64.22;101026.63;4902318;28;97289;-49
2022/10/16 06:40:22;;;;;;;2.37;1.43;;;;;;;14.27;64.42;101009.25;4905403;28;97252;-49
2022/10/16 06:42:47;;;;;;;2.07;0.90;;;;;;;14.33;64.31;101010.00;4906719;28;97510;-49
2022/10/16 06:45:13;;;;;;;1.73;0.90;;;;;;;14.39;64.32;101012.78;4906449;28;103349;-49
2022/10/16 06:47:38;;;;;;;4.83;0.90;;;;;;;14.45;64.43;101016.25;4904537;28;97548;-49
2022/10/16 06:50:06;;;;;;;0.93;0.83;;;;;;;14.50;64.47;101010.72;4905826;28;101595;-49
2022/10/16 06:52:31;;;;;;;0.90;0.60;;;;;;;14.54;64.44;101010.44;4908194;28;98952;-49
2022/10/16 06:54:57;;;;;;;1.93;0.83;;;;;;;14.58;64.50;101016.44;4905179;28;97137;-49
2022/10/16 06:57:22;;;;;;;1.70;0.80;;;;;;;14.63;64.67;101023.97;4906225;28;97394;-49
2022/10/16 06:59:47;;;;;;;1.43;1.33;;;;;;;14.67;64.66;101021.69;4902854;28;104614;-49
2022/10/16 07:02:13;;;;;;;2.90;0.80;;;;;;;14.71;64.71;101031.25;4903966;28;115897;-49
2022/10/16 07:04:38;;;;;;;6.83;0.87;;;;;;;14.75;64.67;101026.19;4905503;28;98799;-49
2022/10/16 07:07:03;;;;;;;3.30;0.90;;;;;;;14.83;64.69;101034.72;4905713;28;97526;-49
2022/10/16 07:09:29;;;;;;;3.70;1.10;;;;;;;14.89;64.77;101041.72;4907182;28;98383;-49
2022/10/16 07:11:54;;;;;;;2.10;0.97;;;;;;;14.94;64.71;101040.16;4900619;28;97609;-49
2022/10/16 07:14:21;;;;;;;1.30;0.87;;;;;;;15.01;64.86;101043.16;4902744;28;97265;-49
2022/10/16 07:16:47;;;;;;;6.57;1.40;;;;;;;15.07;64.75;101054.19;4906310;28;97215;-50
2022/10/16 07:19:15;;;;;;;5.93;1.00;;;;;;;15.14;64.69;101048.09;4905195;28;97363;-49
2022/10/16 07:21:41;;;;;;;2.53;1.00;;;;;;;15.20;64.99;101061.94;4906373;28;97293;-50
2022/10/16 07:24:11;;;;;;;0.97;0.97;;;;;;;15.25;64.86;101059.13;4904429;28;101782;-48
2022/10/16 07:26:38;;;;;;;1.10;1.00;;;;;;;15.30;64.95;101069.41;4903856;28;97564;-50
2022/10/16 07:29:05;;;;;;;0.90;0.90;;;;;;;15.37;65.07;101071.63;4907796;28;97322;-50
2022/10/16 07:31:30;;;;;;;4.50;1.07;;;;;;;15.46;64.92;101076.13;4903399;28;97724;-50
2022/10/16 07:33:58;;;;;;;2.47;1.03;;;;;;;15.54;65.14;101082.63;4906639;28;97477;-50
2022/10/16 07:36:24;;;;;;;5.73;1.00;;;;;;;15.62;65.09;101089.88;4905166;28;97068;-56
2022/10/16 07:38:49;;;;;;;2.60;1.30;;;;;;;15.71;65.12;101095.09;4908126;28;97112;-50
2022/10/16 07:41:17;;;;;;;4.23;0.90;;;;;;;15.80;65.14;101105.09;4902773;28;97718;-50
2022/10/16 07:43:47;;;;;;;1.33;1.00;;;;;;;15.90;65.31;101100.72;4905874;28;96905;-49
2022/10/16 07:46:12;;;;;;;2.20;1.10;;;;;;;15.99;65.26;101111.50;4903114;28;97022;-48
2022/10/16 07:48:38;;;;;;;2.10;0.90;;;;;;;16.09;65.21;101103.59;4906466;28;97047;-48
2022/10/16 07:51:05;;;;;;;2.40;0.77;;;;;;;16.19;65.10;101102.72;4903243;28;97675;-49
2022/10/16 07:53:31;;;;;;;3.40;0.93;;;;;;;16.25;65.25;101105.44;4905302;28;97167;-51
2022/10/16 07:55:58;;;;;;;3.23;1.07;;;;;;;16.28;65.21;101118.28;4904761;28;97062;-48
2022/10/16 07:58:23;;;;;;;3.53;0.87;;;;;;;16.34;65.20;101108.63;4904689;28;97473;-48
2022/10/16 08:00:49;;;;;;;2.00;0.77;;;;;;;16.41;65.19;101119.16;4896549;28;97392;-51
2022/10/16 08:03:14;;;;;;;0.80;0.80;;;;;;;16.47;65.11;101117.06;4904289;28;113961;-50
2022/10/16 08:05:39;;;;;;;0.97;0.90;;;;;;;16.53;64.99;101130.16;4901726;28;98227;-49
2022/10/16 08:08:05;;;;;;;1.57;0.70;;;;;;;16.61;65.22;101119.97;4902721;28;97095;-48
2022/10/16 08:10:31;;;;;;;4.47;0.80;;;;;;;16.65;65.07;101125.97;4895407;28;105815;-49
2022/10/16 08:12:57;;;;;;;1.30;0.60;;;;;;;16.71;64.96;101126.69;4905424;28;98656;-48
2022/10/16 08:15:22;;;;;;;2.60;0.73;;;;;;;16.77;64.94;101130.16;4903575;28;96977;-49
2022/10/16 08:17:58;;;;;;;0.80;0.63;;;;;;;16.83;64.95;101128.78;4896587;28;97394;-47
2022/10/16 08:20:24;;;;;;;1.13;0.73;;;;;;;16.84;64.77;101130.28;4904261;28;97525;-48
2022/10/16 08:22:49;;;;;;;2.90;0.80;;;;;;;16.87;64.76;101143.16;4902107;28;98614;-48
2022/10/16 08:25:14;;;;;;;4.93;0.90;;;;;;;16.91;64.89;101140.81;4903314;28;98105;-48
2022/10/16 08:27:40;;;;;;;1.00;0.57;;;;;;;16.98;64.92;101148.56;4901318;28;97157;-49
2022/10/16 08:30:05;;;;;;;1.13;0.57;;;;;;;17.09;64.79;101147.66;4906093;28;112541;-48
2022/10/16 08:32:31;;;;;;;0.80;0.60;;;;;;;17.20;64.65;101161.44;4901894;28;97246;-49
2022/10/16 08:34:56;;;;;;;2.50;0.70;;;;;;;17.31;64.43;101166.09;4904380;28;99382;-48
2022/10/16 08:37:21;;;;;;;0.90;0.70;;;;;;;17.41;64.30;101156.09;4900642;28;99195;-48
2022/10/16 08:39:47;;;;;;;1.37;0.60;;;;;;;17.49;64.22;101157.75;4890065;28;104673;-51
2022/10/16 08:42:23;;;;;;;1.87;0.60;;;;;;;17.60;64.35;101168.72;4897998;28;118461;-48
2022/10/16 08:45:08;;;;;;;4.33;0.50;;;;;;;17.72;64.01;101156.13;4889884;28;97421;-48
2022/10/16 08:47:59;;;;;;;0.70;0.60;;;;;;;17.82;64.11;101162.06;4894077;28;97497;-48
2022/10/16 08:50:29;;;;;;;0.70;0.70;;;;;;;17.90;63.84;101174.84;4896373;28;100494;-49
2022/10/16 08:52:55;;;;;;;0.60;0.50;;;;;;;17.98;63.67;101175.72;4899556;28;102006;-51
2022/10/16 08:55:36;;;;;;;1.27;0.53;;;;;;;18.08;63.36;101172.53;4898221;28;97433;-48
2022/10/16 08:58:02;;;;;;;2.67;0.80;;;;;;;18.15;63.50;101180.25;4900698;28;97688;-48
2022/10/16 09:00:28;;;;;;;0.70;0.70;;;;;;;18.22;63.33;101174.78;4898986;28;97658;-49
2022/10/16 09:03:11;;;;;;;1.93;0.73;;;;;;;18.36;62.90;101193.03;4899475;28;97213;-48
2022/10/16 09:05:54;;;;;;;0.60;0.60;;;;;;;18.43;63.11;101195.22;4903138;28;97250;-49
2022/10/16 09:08:57;;;;;;;1.80;0.50;;;;;;;18.51;62.59;101206.47;4897142;28;97331;-51
2022/10/16 09:11:26;;;;;;;1.47;0.50;;;;;;;18.63;62.78;101210.59;4899365;28;103414;-51
2022/10/16 09:14:36;;;;;;;0.60;0.60;;;;;;;18.83;62.40;101221.06;4900952;28;97614;-52
2022/10/16 09:17:29;;;;;;;1.27;0.80;;;;;;;19.08;61.90;101216.03;4903029;28;96881;-51
2022/10/16 09:20:34;;;;;;;0.77;0.50;;;;;;;19.16;61.82;101234.38;4889894;28;97257;-49
2022/10/16 09:23:08;;;;;;;2.20;0.57;;;;;;;19.22;61.72;101225.91;4900831;28;100412;-48
2022/10/16 09:25:35;;;;;;;2.30;0.60;;;;;;;19.26;62.17;101226.31;4900696;28;97376;-48
2022/10/16 09:28:00;;;;;;;0.60;0.60;;;;;;;19.27;62.07;101236.94;4902637;28;97649;-50
2022/10/16 09:30:29;;;;;;;1.20;0.73;;;;;;;19.33;61.71;101234.78;4904707;28;102871;-49
2022/10/16 09:32:57;;;;;;;2.17;0.90;;;;;;;19.37;61.83;101240.78;4903083;28;98329;-50
2022/10/16 09:35:31;;;;;;;1.03;0.50;;;;;;;19.42;61.39;101236.38;4908359;28;97417;-49
2022/10/16 09:37:56;;;;;;;1.70;0.67;;;;;;;19.40;61.53;101236.94;4903743;28;96942;-49
2022/10/16 09:40:42;;;;;;;1.13;0.50;;;;;;;19.42;60.59;101230.81;4902533;28;100345;-49
2022/10/16 09:43:31;;;;;;;1.13;0.70;;;;;;;19.45;60.90;101243.69;4905441;28;100393;-49
2022/10/16 09:46:20;;;;;;;0.60;0.50;;;;;;;19.46;60.68;101236.06;4907143;28;100287;-50
2022/10/16 09:48:49;;;;;;;0.60;0.57;;;;;;;19.41;61.05;101240.47;4905811;28;97686;-48
2022/10/16 09:51:30;;;;;;;0.80;0.60;;;;;;;19.36;60.21;101238.56;4908166;28;96931;-51
2022/10/16 09:53:59;;;;;;;1.33;0.50;;;;;;;19.29;61.17;101247.53;4907589;28;101844;-49
2022/10/16 09:56:32;;;;;;;0.80;0.70;;;;;;;19.28;60.66;101251.63;4905965;28;96784;-49
2022/10/16 09:59:01;;;;;;;0.93;0.50;;;;;;;19.31;61.09;101253.34;4904874;28;97225;-52
2022/10/16 10:01:38;;;;;;;2.73;0.60;;;;;;;19.34;60.16;101250.25;4909909;28;97011;-52
2022/10/16 10:04:04;;;;;;;2.73;0.57;;;;;;;19.37;60.57;101260.34;4905005;28;102142;-48
2022/10/16 10:06:39;;;;;;;4.40;0.73;;;;;;;19.40;60.21;101266.88;4907031;28;98216;-50
2022/10/16 10:09:24;;;;;;;0.60;0.47;;;;;;;19.42;60.58;101269.88;4904459;28;97268;-48
2022/10/16 10:11:53;;;;;;;1.03;0.40;;;;;;;19.46;60.27;101255.63;4906818;28;97183;-50
2022/10/16 10:14:23;;;;;;;2.47;0.70;;;;;;;19.49;60.25;101254.53;4905271;28;97079;-51
2022/10/16 10:16:50;;;;;;;0.90;0.40;;;;;;;19.56;60.26;101253.88;4907662;28;96876;-50
2022/10/16 10:19:18;;;;;;;0.70;0.50;;;;;;;19.61;60.08;101261.38;4904352;28;97273;-51
2022/10/16 10:21:43;;;;;;;4.80;0.60;;;;;;;19.64;59.99;101261.03;4908618;28;97229;-52
2022/10/16 10:24:17;;;;;;;0.70;0.50;;;;;;;19.67;59.00;101264.78;4904073;28;98777;-48
2022/10/16 10:26:55;;;;;;;1.47;0.60;;;;;;;19.67;58.93;101265.53;4906718;28;96807;-49
2022/10/16 10:29:48;;;;;;;1.93;0.50;;;;;;;19.73;58.54;101268.97;4890020;28;98159;-49
2022/10/16 10:32:26;;;;;;;0.90;0.50;;;;;;;19.80;58.79;101262.72;4900903;28;97354;-51
2022/10/16 10:35:18;;;;;;;2.03;0.70;;;;;;;19.80;58.25;101276.69;4900129;28;96958;-47
2022/10/16 10:38:03;;;;;;;0.60;0.50;;;;;;;19.87;58.63;101273.22;4897691;28;100168;-48
2022/10/16 10:40:56;;;;;;;2.03;0.53;;;;;;;19.95;58.53;101267.69;4900405;28;97222;-48
2022/10/16 10:43:56;;;;;;;1.10;0.50;;;;;;;20.03;57.73;101266.47;4899927;28;97335;-50
2022/10/16 10:46:51;;;;;;;2.63;0.50;;;;;;;20.14;58.17;101257.84;4861148;28;100525;-50
2022/10/16 10:49:55;;;;;;;2.00;0.90;;;;;;;20.25;57.85;101272.88;4893439;28;101073;-49
2022/10/16 10:52:58;;;;;;;1.20;0.60;;;;;;;20.39;57.68;101268.72;4901456;28;97048;-49
2022/10/16 10:55:38;;;;;;;0.80;0.60;;;;;;;20.51;57.40;101279.06;4900161;28;97540;-49
2022/10/16 10:58:40;;;;;;;0.60;0.40;;;;;;;20.67;56.76;101285.53;4899150;28;97113;-49
2022/10/16 11:01:11;;;;;;;1.10;0.60;;;;;;;20.85;57.76;101284.53;4899723;28;101872;-50
2022/10/16 11:04:15;;;;;;;0.93;0.50;;;;;;;20.99;55.64;101294.31;4899937;28;97239;-49
2022/10/16 11:06:49;;;;;;;1.30;0.90;;;;;;;21.06;56.51;101295.69;4896805;28;97433;-49
2022/10/16 11:09:28;;;;;;;0.70;0.60;;;;;;;21.15;56.49;101298.75;4900429;28;97393;-49
2022/10/16 11:11:59;;;;;;;0.80;0.67;;;;;;;21.30;56.62;101292.47;4901283;28;98520;-49
2022/10/16 11:14:37;;;;;;;3.30;0.80;;;;;;;21.48;55.65;101288.66;4898558;28;97309;-49
2022/10/16 11:17:25;;;;;;;1.63;0.60;;;;;;;21.67;55.21;101302.38;4902523;28;97506;-49
2022/10/16 11:20:01;;;;;;;0.90;0.77;;;;;;;21.83;54.91;101299.09;4898993;28;102417;-49
2022/10/16 11:22:40;;;;;;;0.80;0.50;;;;;;;21.86;54.57;101306.41;4897367;28;97304;-49
2022/10/16 11:25:21;;;;;;;1.20;0.57;;;;;;;22.00;54.02;101321.75;4899888;28;97189;-49
2022/10/16 11:28:08;;;;;;;1.30;0.63;;;;;;;21.99;52.75;101317.47;4901287;28;97110;-51
2022/10/16 11:30:44;;;;;;;1.20;0.60;;;;;;;21.92;53.86;101320.97;4900991;28;98565;-49
2022/10/16 11:33:18;;;;;;;0.70;0.60;;;;;;;21.95;54.63;101316.31;4901134;28;97314;-50
2022/10/16 11:35:44;;;;;;;1.77;0.67;;;;;;;21.96;54.90;101326.97;4902013;28;98324;-49
2022/10/16 11:38:17;;;;;;;0.80;0.73;;;;;;;21.90;54.37;101334.81;4902719;28;96991;-49